sensor_id;sensor_type;location;lat;lon;timestamp;P1;durP1;ratioP1;P2;durP2;ratioP2
8333;SDS011;4204;43.004;23.052;2023-05-17T00:01:43;9.30;;;6.07;;
8333;SDS011;4204;43.004;23.052;2023-05-17T00:04:11;9.63;;;5.17;;
8333;SDS011;4204;43.004;23.052;2023-05-17T00:06:39;10.33;;;5.80;;
8333;SDS011;4204;43.004;23.052;2023-05-17T00:09:07;10.03;;;5.60;;
8333;SDS011;4204;43.004;23.052;2023-05-17T00:11:35;10.47;;;6.33;;
8333;SDS011;4204;43.004;23.052;2023-05-17T00:14:02;9.40;;;6.07;;
8333;SDS011;4204;43.004;23.052;2023-05-17T00:16:32;11.57;;;6.60;;
8333;SDS011;4204;43.004;23.052;2023-05-17T00:19:00;9.67;;;6.23;;
8333;SDS011;4204;43.004;23.052;2023-05-17T00:21:27;9.20;;;5.73;;
8333;SDS011;4204;43.004;23.052;2023-05-17T00:23:56;10.07;;;6.33;;
8333;SDS011;4204;43.004;23.052;2023-05-17T00:26:23;10.73;;;6.10;;
8333;SDS011;4204;43.004;23.052;2023-05-17T00:28:51;12.90;;;6.50;;
8333;SDS011;4204;43.004;23.052;2023-05-17T00:31:19;8.43;;;5.83;;
8333;SDS011;4204;43.004;23.052;2023-05-17T00:33:48;8.17;;;5.67;;
8333;SDS011;4204;43.004;23.052;2023-05-17T00:36:16;9.67;;;6.07;;
8333;SDS011;4204;43.004;23.052;2023-05-17T00:38:44;8.60;;;6.23;;
8333;SDS011;4204;43.004;23.052;2023-05-17T00:41:11;8.20;;;5.20;;
8333;SDS011;4204;43.004;23.052;2023-05-17T00:43:39;7.80;;;6.03;;
8333;SDS011;4204;43.004;23.052;2023-05-17T00:46:07;11.43;;;5.90;;
8333;SDS011;4204;43.004;23.052;2023-05-17T00:48:35;10.20;;;5.67;;
8333;SDS011;4204;43.004;23.052;2023-05-17T00:51:04;8.90;;;5.77;;
8333;SDS011;4204;43.004;23.052;2023-05-17T00:53:32;9.27;;;5.67;;
8333;SDS011;4204;43.004;23.052;2023-05-17T00:56:03;9.80;;;6.67;;
8333;SDS011;4204;43.004;23.052;2023-05-17T00:58:32;9.30;;;6.23;;
8333;SDS011;4204;43.004;23.052;2023-05-17T01:01:00;12.27;;;6.93;;
8333;SDS011;4204;43.004;23.052;2023-05-17T01:03:28;11.57;;;7.00;;
8333;SDS011;4204;43.004;23.052;2023-05-17T01:05:55;12.70;;;6.53;;
8333;SDS011;4204;43.004;23.052;2023-05-17T01:08:25;9.60;;;5.40;;
8333;SDS011;4204;43.004;23.052;2023-05-17T01:10:53;10.97;;;6.63;;
8333;SDS011;4204;43.004;23.052;2023-05-17T01:13:34;9.17;;;6.33;;
8333;SDS011;4204;43.004;23.052;2023-05-17T01:16:09;12.27;;;6.17;;
8333;SDS011;4204;43.004;23.052;2023-05-17T01:18:43;12.50;;;5.93;;
8333;SDS011;4204;43.004;23.052;2023-05-17T01:21:18;9.47;;;5.70;;
8333;SDS011;4204;43.004;23.052;2023-05-17T01:24:02;8.27;;;4.90;;
8333;SDS011;4204;43.004;23.052;2023-05-17T01:26:44;9.50;;;5.47;;
8333;SDS011;4204;43.004;23.052;2023-05-17T01:29:15;9.57;;;5.90;;
8333;SDS011;4204;43.004;23.052;2023-05-17T01:31:47;7.97;;;5.17;;
8333;SDS011;4204;43.004;23.052;2023-05-17T01:34:23;7.37;;;5.80;;
8333;SDS011;4204;43.004;23.052;2023-05-17T01:36:51;10.27;;;5.73;;
8333;SDS011;4204;43.004;23.052;2023-05-17T01:39:19;10.97;;;6.10;;
8333;SDS011;4204;43.004;23.052;2023-05-17T01:41:50;7.90;;;5.70;;
8333;SDS011;4204;43.004;23.052;2023-05-17T01:44:25;9.47;;;5.80;;
8333;SDS011;4204;43.004;23.052;2023-05-17T01:46:59;9.03;;;5.23;;
8333;SDS011;4204;43.004;23.052;2023-05-17T01:49:33;10.57;;;5.37;;
8333;SDS011;4204;43.004;23.052;2023-05-17T01:52:06;9.47;;;6.07;;
8333;SDS011;4204;43.004;23.052;2023-05-17T01:54:40;8.37;;;5.63;;
8333;SDS011;4204;43.004;23.052;2023-05-17T01:57:18;7.50;;;5.70;;
8333;SDS011;4204;43.004;23.052;2023-05-17T01:59:50;8.83;;;5.37;;
8333;SDS011;4204;43.004;23.052;2023-05-17T02:02:19;9.50;;;5.67;;
8333;SDS011;4204;43.004;23.052;2023-05-17T02:04:47;8.90;;;5.73;;
8333;SDS011;4204;43.004;23.052;2023-05-17T02:07:16;9.13;;;5.43;;
8333;SDS011;4204;43.004;23.052;2023-05-17T02:09:44;10.53;;;5.57;;
8333;SDS011;4204;43.004;23.052;2023-05-17T02:12:11;12.83;;;5.90;;
8333;SDS011;4204;43.004;23.052;2023-05-17T02:14:40;7.77;;;5.27;;
8333;SDS011;4204;43.004;23.052;2023-05-17T02:17:09;11.40;;;5.83;;
8333;SDS011;4204;43.004;23.052;2023-05-17T02:19:36;8.90;;;6.13;;
8333;SDS011;4204;43.004;23.052;2023-05-17T02:22:06;6.70;;;5.67;;
8333;SDS011;4204;43.004;23.052;2023-05-17T02:24:34;9.70;;;5.80;;
8333;SDS011;4204;43.004;23.052;2023-05-17T02:27:02;10.57;;;5.47;;
8333;SDS011;4204;43.004;23.052;2023-05-17T02:29:31;13.13;;;5.37;;
8333;SDS011;4204;43.004;23.052;2023-05-17T02:32:00;6.80;;;4.93;;
8333;SDS011;4204;43.004;23.052;2023-05-17T02:34:28;14.83;;;5.20;;
8333;SDS011;4204;43.004;23.052;2023-05-17T02:36:55;8.53;;;5.23;;
8333;SDS011;4204;43.004;23.052;2023-05-17T02:39:23;6.20;;;5.30;;
8333;SDS011;4204;43.004;23.052;2023-05-17T02:41:51;9.20;;;5.20;;
8333;SDS011;4204;43.004;23.052;2023-05-17T02:44:18;8.53;;;5.10;;
8333;SDS011;4204;43.004;23.052;2023-05-17T02:46:46;9.23;;;4.73;;
8333;SDS011;4204;43.004;23.052;2023-05-17T02:49:15;6.30;;;4.87;;
8333;SDS011;4204;43.004;23.052;2023-05-17T02:51:43;6.57;;;4.30;;
8333;SDS011;4204;43.004;23.052;2023-05-17T02:54:11;8.20;;;4.70;;
8333;SDS011;4204;43.004;23.052;2023-05-17T02:56:39;5.03;;;4.53;;
8333;SDS011;4204;43.004;23.052;2023-05-17T02:59:06;5.77;;;5.17;;
8333;SDS011;4204;43.004;23.052;2023-05-17T03:01:35;8.13;;;5.40;;
8333;SDS011;4204;43.004;23.052;2023-05-17T03:04:03;13.70;;;5.60;;
8333;SDS011;4204;43.004;23.052;2023-05-17T03:06:33;10.10;;;5.87;;
8333;SDS011;4204;43.004;23.052;2023-05-17T03:09:01;11.70;;;5.80;;
8333;SDS011;4204;43.004;23.052;2023-05-17T03:11:29;11.37;;;6.17;;
8333;SDS011;4204;43.004;23.052;2023-05-17T03:13:58;9.63;;;5.43;;
8333;SDS011;4204;43.004;23.052;2023-05-17T03:16:27;12.47;;;5.83;;
8333;SDS011;4204;43.004;23.052;2023-05-17T03:18:55;11.23;;;6.27;;
8333;SDS011;4204;43.004;23.052;2023-05-17T03:21:23;9.77;;;5.80;;
8333;SDS011;4204;43.004;23.052;2023-05-17T03:23:52;11.43;;;5.10;;
8333;SDS011;4204;43.004;23.052;2023-05-17T03:26:20;14.03;;;5.60;;
8333;SDS011;4204;43.004;23.052;2023-05-17T03:28:51;8.43;;;5.00;;
8333;SDS011;4204;43.004;23.052;2023-05-17T03:31:18;6.47;;;5.13;;
8333;SDS011;4204;43.004;23.052;2023-05-17T03:33:46;8.17;;;5.40;;
8333;SDS011;4204;43.004;23.052;2023-05-17T03:36:14;8.33;;;5.13;;
8333;SDS011;4204;43.004;23.052;2023-05-17T03:38:42;9.73;;;5.63;;
8333;SDS011;4204;43.004;23.052;2023-05-17T03:41:11;10.77;;;6.00;;
8333;SDS011;4204;43.004;23.052;2023-05-17T03:43:40;11.60;;;6.23;;
8333;SDS011;4204;43.004;23.052;2023-05-17T03:46:10;11.53;;;6.20;;
8333;SDS011;4204;43.004;23.052;2023-05-17T03:48:37;10.53;;;6.47;;
8333;SDS011;4204;43.004;23.052;2023-05-17T03:51:05;8.10;;;6.27;;
8333;SDS011;4204;43.004;23.052;2023-05-17T03:53:34;8.70;;;6.23;;
8333;SDS011;4204;43.004;23.052;2023-05-17T03:56:06;12.77;;;6.87;;
8333;SDS011;4204;43.004;23.052;2023-05-17T03:58:35;9.40;;;6.50;;
8333;SDS011;4204;43.004;23.052;2023-05-17T04:01:04;9.43;;;6.40;;
8333;SDS011;4204;43.004;23.052;2023-05-17T04:03:33;12.77;;;6.40;;
8333;SDS011;4204;43.004;23.052;2023-05-17T04:06:02;12.33;;;6.83;;
8333;SDS011;4204;43.004;23.052;2023-05-17T04:08:33;10.20;;;6.83;;
8333;SDS011;4204;43.004;23.052;2023-05-17T04:11:01;12.37;;;6.97;;
8333;SDS011;4204;43.004;23.052;2023-05-17T04:13:37;11.73;;;7.53;;
8333;SDS011;4204;43.004;23.052;2023-05-17T04:16:06;10.67;;;7.30;;
8333;SDS011;4204;43.004;23.052;2023-05-17T04:18:35;10.30;;;7.93;;
8333;SDS011;4204;43.004;23.052;2023-05-17T04:21:03;13.80;;;7.50;;
8333;SDS011;4204;43.004;23.052;2023-05-17T04:23:33;14.07;;;7.83;;
8333;SDS011;4204;43.004;23.052;2023-05-17T04:26:01;11.37;;;7.40;;
8333;SDS011;4204;43.004;23.052;2023-05-17T04:28:31;13.37;;;7.83;;
8333;SDS011;4204;43.004;23.052;2023-05-17T04:31:05;12.23;;;7.37;;
8333;SDS011;4204;43.004;23.052;2023-05-17T04:33:33;11.30;;;8.17;;
8333;SDS011;4204;43.004;23.052;2023-05-17T04:36:02;16.23;;;8.07;;
8333;SDS011;4204;43.004;23.052;2023-05-17T04:38:31;10.17;;;8.57;;
8333;SDS011;4204;43.004;23.052;2023-05-17T04:41:02;12.77;;;8.60;;
8333;SDS011;4204;43.004;23.052;2023-05-17T04:43:32;15.53;;;8.53;;
8333;SDS011;4204;43.004;23.052;2023-05-17T04:46:02;12.10;;;8.47;;
8333;SDS011;4204;43.004;23.052;2023-05-17T04:48:30;13.23;;;7.97;;
8333;SDS011;4204;43.004;23.052;2023-05-17T04:51:01;13.37;;;7.63;;
8333;SDS011;4204;43.004;23.052;2023-05-17T04:53:30;12.20;;;8.13;;
8333;SDS011;4204;43.004;23.052;2023-05-17T04:56:01;15.33;;;7.87;;
8333;SDS011;4204;43.004;23.052;2023-05-17T04:58:30;13.80;;;8.47;;
8333;SDS011;4204;43.004;23.052;2023-05-17T05:00:59;12.07;;;7.87;;
8333;SDS011;4204;43.004;23.052;2023-05-17T05:03:28;10.37;;;7.90;;
8333;SDS011;4204;43.004;23.052;2023-05-17T05:05:56;11.57;;;8.23;;
8333;SDS011;4204;43.004;23.052;2023-05-17T05:08:24;12.80;;;8.47;;
8333;SDS011;4204;43.004;23.052;2023-05-17T05:10:54;9.57;;;7.20;;
8333;SDS011;4204;43.004;23.052;2023-05-17T05:13:23;11.87;;;7.73;;
8333;SDS011;4204;43.004;23.052;2023-05-17T05:15:52;11.30;;;7.97;;
8333;SDS011;4204;43.004;23.052;2023-05-17T05:18:20;12.57;;;7.67;;
8333;SDS011;4204;43.004;23.052;2023-05-17T05:20:49;12.40;;;7.97;;
8333;SDS011;4204;43.004;23.052;2023-05-17T05:23:17;17.30;;;8.00;;
8333;SDS011;4204;43.004;23.052;2023-05-17T05:25:48;15.33;;;8.70;;
8333;SDS011;4204;43.004;23.052;2023-05-17T05:28:16;18.73;;;8.83;;
8333;SDS011;4204;43.004;23.052;2023-05-17T05:30:44;13.40;;;8.53;;
8333;SDS011;4204;43.004;23.052;2023-05-17T05:33:13;13.13;;;9.33;;
8333;SDS011;4204;43.004;23.052;2023-05-17T05:35:42;11.67;;;8.83;;
8333;SDS011;4204;43.004;23.052;2023-05-17T05:38:12;14.20;;;9.10;;
8333;SDS011;4204;43.004;23.052;2023-05-17T05:40:40;13.43;;;8.07;;
8333;SDS011;4204;43.004;23.052;2023-05-17T05:43:08;12.93;;;8.03;;
8333;SDS011;4204;43.004;23.052;2023-05-17T05:45:36;12.60;;;8.63;;
8333;SDS011;4204;43.004;23.052;2023-05-17T05:48:06;14.27;;;8.40;;
8333;SDS011;4204;43.004;23.052;2023-05-17T05:50:34;13.23;;;8.63;;
8333;SDS011;4204;43.004;23.052;2023-05-17T05:53:07;11.60;;;8.17;;
8333;SDS011;4204;43.004;23.052;2023-05-17T05:55:38;15.10;;;8.93;;
8333;SDS011;4204;43.004;23.052;2023-05-17T05:58:07;14.70;;;8.30;;
8333;SDS011;4204;43.004;23.052;2023-05-17T06:00:36;14.33;;;8.57;;
8333;SDS011;4204;43.004;23.052;2023-05-17T06:03:05;10.67;;;7.67;;
8333;SDS011;4204;43.004;23.052;2023-05-17T06:05:33;10.83;;;7.63;;
8333;SDS011;4204;43.004;23.052;2023-05-17T06:08:00;10.93;;;8.03;;
8333;SDS011;4204;43.004;23.052;2023-05-17T06:10:28;9.77;;;7.70;;
8333;SDS011;4204;43.004;23.052;2023-05-17T06:12:57;15.07;;;8.07;;
8333;SDS011;4204;43.004;23.052;2023-05-17T06:15:25;14.83;;;8.13;;
8333;SDS011;4204;43.004;23.052;2023-05-17T06:17:53;12.57;;;7.60;;
8333;SDS011;4204;43.004;23.052;2023-05-17T06:20:21;13.87;;;7.50;;
8333;SDS011;4204;43.004;23.052;2023-05-17T06:22:49;12.07;;;7.40;;
8333;SDS011;4204;43.004;23.052;2023-05-17T06:25:16;10.90;;;7.50;;
8333;SDS011;4204;43.004;23.052;2023-05-17T06:27:44;12.87;;;7.73;;
8333;SDS011;4204;43.004;23.052;2023-05-17T06:30:13;17.40;;;8.40;;
8333;SDS011;4204;43.004;23.052;2023-05-17T06:32:41;13.63;;;7.90;;
8333;SDS011;4204;43.004;23.052;2023-05-17T06:35:09;10.53;;;7.40;;
8333;SDS011;4204;43.004;23.052;2023-05-17T06:37:37;11.20;;;7.90;;
8333;SDS011;4204;43.004;23.052;2023-05-17T06:40:05;14.10;;;7.10;;
8333;SDS011;4204;43.004;23.052;2023-05-17T06:42:35;12.27;;;7.00;;
8333;SDS011;4204;43.004;23.052;2023-05-17T06:45:03;13.57;;;6.97;;
8333;SDS011;4204;43.004;23.052;2023-05-17T06:47:33;10.13;;;7.30;;
8333;SDS011;4204;43.004;23.052;2023-05-17T06:50:00;12.07;;;7.43;;
8333;SDS011;4204;43.004;23.052;2023-05-17T06:52:28;10.07;;;7.07;;
8333;SDS011;4204;43.004;23.052;2023-05-17T06:54:57;9.10;;;7.13;;
8333;SDS011;4204;43.004;23.052;2023-05-17T06:57:24;12.33;;;8.23;;
8333;SDS011;4204;43.004;23.052;2023-05-17T06:59:52;15.23;;;8.50;;
8333;SDS011;4204;43.004;23.052;2023-05-17T07:02:20;11.83;;;8.40;;
8333;SDS011;4204;43.004;23.052;2023-05-17T07:04:49;10.33;;;8.73;;
8333;SDS011;4204;43.004;23.052;2023-05-17T07:07:17;12.60;;;8.40;;
8333;SDS011;4204;43.004;23.052;2023-05-17T07:09:46;11.33;;;8.90;;
8333;SDS011;4204;43.004;23.052;2023-05-17T07:12:13;13.00;;;9.10;;
8333;SDS011;4204;43.004;23.052;2023-05-17T07:14:41;13.50;;;9.10;;
8333;SDS011;4204;43.004;23.052;2023-05-17T07:17:09;16.70;;;9.93;;
8333;SDS011;4204;43.004;23.052;2023-05-17T07:19:37;17.63;;;9.90;;
8333;SDS011;4204;43.004;23.052;2023-05-17T07:22:06;14.77;;;9.63;;
8333;SDS011;4204;43.004;23.052;2023-05-17T07:24:35;14.77;;;9.40;;
8333;SDS011;4204;43.004;23.052;2023-05-17T07:27:02;11.70;;;8.57;;
8333;SDS011;4204;43.004;23.052;2023-05-17T07:29:31;13.33;;;8.83;;
8333;SDS011;4204;43.004;23.052;2023-05-17T07:31:58;12.83;;;9.43;;
8333;SDS011;4204;43.004;23.052;2023-05-17T07:34:26;18.30;;;10.10;;
8333;SDS011;4204;43.004;23.052;2023-05-17T07:36:54;14.30;;;9.83;;
8333;SDS011;4204;43.004;23.052;2023-05-17T07:39:23;12.00;;;8.93;;
8333;SDS011;4204;43.004;23.052;2023-05-17T07:41:50;13.10;;;9.03;;
8333;SDS011;4204;43.004;23.052;2023-05-17T07:44:18;12.30;;;8.37;;
8333;SDS011;4204;43.004;23.052;2023-05-17T07:46:46;12.53;;;8.60;;
8333;SDS011;4204;43.004;23.052;2023-05-17T07:49:14;12.77;;;8.10;;
8333;SDS011;4204;43.004;23.052;2023-05-17T07:51:42;16.87;;;8.73;;
8333;SDS011;4204;43.004;23.052;2023-05-17T07:54:11;10.57;;;7.77;;
8333;SDS011;4204;43.004;23.052;2023-05-17T07:56:50;12.80;;;8.13;;
8333;SDS011;4204;43.004;23.052;2023-05-17T07:59:20;13.30;;;8.23;;
8333;SDS011;4204;43.004;23.052;2023-05-17T08:01:48;14.37;;;8.13;;
8333;SDS011;4204;43.004;23.052;2023-05-17T08:04:16;14.17;;;7.90;;
8333;SDS011;4204;43.004;23.052;2023-05-17T08:06:44;16.07;;;8.13;;
8333;SDS011;4204;43.004;23.052;2023-05-17T08:09:13;12.83;;;7.60;;
8333;SDS011;4204;43.004;23.052;2023-05-17T08:11:42;14.27;;;7.40;;
8333;SDS011;4204;43.004;23.052;2023-05-17T08:14:13;15.67;;;7.87;;
8333;SDS011;4204;43.004;23.052;2023-05-17T08:16:42;12.30;;;8.20;;
8333;SDS011;4204;43.004;23.052;2023-05-17T08:19:12;12.40;;;8.63;;
8333;SDS011;4204;43.004;23.052;2023-05-17T08:21:41;14.30;;;8.10;;
8333;SDS011;4204;43.004;23.052;2023-05-17T08:24:09;13.30;;;7.37;;
8333;SDS011;4204;43.004;23.052;2023-05-17T08:26:36;15.93;;;7.73;;
8333;SDS011;4204;43.004;23.052;2023-05-17T08:29:04;10.53;;;7.33;;
8333;SDS011;4204;43.004;23.052;2023-05-17T08:31:33;12.60;;;7.43;;
8333;SDS011;4204;43.004;23.052;2023-05-17T08:34:01;14.87;;;8.13;;
8333;SDS011;4204;43.004;23.052;2023-05-17T08:36:29;11.73;;;8.00;;
8333;SDS011;4204;43.004;23.052;2023-05-17T08:38:57;11.13;;;7.53;;
8333;SDS011;4204;43.004;23.052;2023-05-17T08:41:24;16.67;;;8.73;;
8333;SDS011;4204;43.004;23.052;2023-05-17T08:43:52;14.37;;;7.97;;
8333;SDS011;4204;43.004;23.052;2023-05-17T08:46:21;12.97;;;7.97;;
8333;SDS011;4204;43.004;23.052;2023-05-17T08:48:53;15.40;;;8.40;;
8333;SDS011;4204;43.004;23.052;2023-05-17T08:51:24;15.47;;;7.60;;
8333;SDS011;4204;43.004;23.052;2023-05-17T08:53:53;15.20;;;8.23;;
8333;SDS011;4204;43.004;23.052;2023-05-17T08:56:21;14.70;;;8.43;;
8333;SDS011;4204;43.004;23.052;2023-05-17T08:58:51;11.60;;;7.73;;
8333;SDS011;4204;43.004;23.052;2023-05-17T09:01:21;14.53;;;7.50;;
8333;SDS011;4204;43.004;23.052;2023-05-17T09:03:50;14.00;;;8.10;;
8333;SDS011;4204;43.004;23.052;2023-05-17T09:06:20;13.47;;;7.50;;
8333;SDS011;4204;43.004;23.052;2023-05-17T09:08:48;13.93;;;8.07;;
8333;SDS011;4204;43.004;23.052;2023-05-17T09:11:23;15.60;;;9.43;;
8333;SDS011;4204;43.004;23.052;2023-05-17T09:13:52;14.67;;;8.13;;
8333;SDS011;4204;43.004;23.052;2023-05-17T09:16:20;13.23;;;8.73;;
8333;SDS011;4204;43.004;23.052;2023-05-17T09:18:54;12.23;;;7.80;;
8333;SDS011;4204;43.004;23.052;2023-05-17T09:21:24;13.40;;;8.90;;
8333;SDS011;4204;43.004;23.052;2023-05-17T09:23:53;16.23;;;9.20;;
8333;SDS011;4204;43.004;23.052;2023-05-17T09:26:24;12.03;;;7.80;;
8333;SDS011;4204;43.004;23.052;2023-05-17T09:28:52;15.73;;;9.00;;
8333;SDS011;4204;43.004;23.052;2023-05-17T09:31:19;13.13;;;9.40;;
8333;SDS011;4204;43.004;23.052;2023-05-17T09:33:48;12.80;;;8.80;;
8333;SDS011;4204;43.004;23.052;2023-05-17T09:36:16;16.53;;;9.23;;
8333;SDS011;4204;43.004;23.052;2023-05-17T09:38:53;16.97;;;9.03;;
8333;SDS011;4204;43.004;23.052;2023-05-17T09:41:25;12.93;;;8.63;;
8333;SDS011;4204;43.004;23.052;2023-05-17T09:43:56;14.70;;;9.10;;
8333;SDS011;4204;43.004;23.052;2023-05-17T09:46:24;15.13;;;9.27;;
8333;SDS011;4204;43.004;23.052;2023-05-17T09:48:52;14.60;;;9.30;;
8333;SDS011;4204;43.004;23.052;2023-05-17T09:51:31;14.27;;;8.30;;
8333;SDS011;4204;43.004;23.052;2023-05-17T09:54:00;14.60;;;8.33;;
8333;SDS011;4204;43.004;23.052;2023-05-17T09:56:28;13.20;;;8.13;;
8333;SDS011;4204;43.004;23.052;2023-05-17T09:58:57;12.83;;;8.90;;
8333;SDS011;4204;43.004;23.052;2023-05-17T10:01:27;13.37;;;8.97;;
8333;SDS011;4204;43.004;23.052;2023-05-17T10:03:58;12.83;;;8.00;;
8333;SDS011;4204;43.004;23.052;2023-05-17T10:06:27;15.00;;;9.00;;
8333;SDS011;4204;43.004;23.052;2023-05-17T10:08:56;14.70;;;8.07;;
8333;SDS011;4204;43.004;23.052;2023-05-17T10:11:27;13.47;;;8.37;;
8333;SDS011;4204;43.004;23.052;2023-05-17T10:14:04;17.87;;;9.23;;
8333;SDS011;4204;43.004;23.052;2023-05-17T10:16:37;13.50;;;9.73;;
8333;SDS011;4204;43.004;23.052;2023-05-17T10:19:05;14.60;;;8.80;;
8333;SDS011;4204;43.004;23.052;2023-05-17T10:21:33;13.93;;;8.90;;
8333;SDS011;4204;43.004;23.052;2023-05-17T10:24:02;17.40;;;9.63;;
8333;SDS011;4204;43.004;23.052;2023-05-17T10:26:33;14.93;;;9.33;;
8333;SDS011;4204;43.004;23.052;2023-05-17T10:29:02;13.80;;;9.30;;
8333;SDS011;4204;43.004;23.052;2023-05-17T10:31:31;12.47;;;8.27;;
8333;SDS011;4204;43.004;23.052;2023-05-17T10:34:02;12.80;;;8.87;;
8333;SDS011;4204;43.004;23.052;2023-05-17T10:36:32;16.63;;;9.07;;
8333;SDS011;4204;43.004;23.052;2023-05-17T10:39:00;15.03;;;8.47;;
8333;SDS011;4204;43.004;23.052;2023-05-17T10:41:30;15.47;;;8.33;;
8333;SDS011;4204;43.004;23.052;2023-05-17T10:44:01;14.67;;;8.67;;
8333;SDS011;4204;43.004;23.052;2023-05-17T10:46:30;11.70;;;8.00;;
8333;SDS011;4204;43.004;23.052;2023-05-17T10:48:59;13.87;;;8.83;;
8333;SDS011;4204;43.004;23.052;2023-05-17T10:51:29;17.20;;;9.47;;
8333;SDS011;4204;43.004;23.052;2023-05-17T10:54:08;13.10;;;8.30;;
8333;SDS011;4204;43.004;23.052;2023-05-17T10:56:46;13.03;;;9.30;;
8333;SDS011;4204;43.004;23.052;2023-05-17T10:59:17;14.63;;;9.67;;
8333;SDS011;4204;43.004;23.052;2023-05-17T11:01:50;13.10;;;10.03;;
8333;SDS011;4204;43.004;23.052;2023-05-17T11:04:20;14.17;;;9.53;;
8333;SDS011;4204;43.004;23.052;2023-05-17T11:06:51;13.87;;;9.60;;
8333;SDS011;4204;43.004;23.052;2023-05-17T11:09:20;14.10;;;10.23;;
8333;SDS011;4204;43.004;23.052;2023-05-17T11:12:03;18.77;;;10.70;;
8333;SDS011;4204;43.004;23.052;2023-05-17T11:14:45;16.07;;;10.37;;
8333;SDS011;4204;43.004;23.052;2023-05-17T11:17:14;15.30;;;10.47;;
8333;SDS011;4204;43.004;23.052;2023-05-17T11:22:54;14.37;;;9.53;;
8333;SDS011;4204;43.004;23.052;2023-05-17T11:25:24;12.20;;;8.97;;
8333;SDS011;4204;43.004;23.052;2023-05-17T11:27:56;15.00;;;9.60;;
8333;SDS011;4204;43.004;23.052;2023-05-17T11:30:25;15.20;;;8.63;;
8333;SDS011;4204;43.004;23.052;2023-05-17T11:32:56;13.03;;;9.60;;
8333;SDS011;4204;43.004;23.052;2023-05-17T11:35:26;12.00;;;9.83;;
8333;SDS011;4204;43.004;23.052;2023-05-17T11:38:12;16.37;;;9.30;;
8333;SDS011;4204;43.004;23.052;2023-05-17T11:40:40;12.23;;;9.23;;
8333;SDS011;4204;43.004;23.052;2023-05-17T11:43:11;11.67;;;9.30;;
8333;SDS011;4204;43.004;23.052;2023-05-17T11:45:43;14.87;;;10.13;;
8333;SDS011;4204;43.004;23.052;2023-05-17T11:48:12;15.80;;;9.47;;
8333;SDS011;4204;43.004;23.052;2023-05-17T11:50:42;14.97;;;9.53;;
8333;SDS011;4204;43.004;23.052;2023-05-17T11:53:11;16.03;;;10.13;;
8333;SDS011;4204;43.004;23.052;2023-05-17T11:55:39;13.73;;;9.00;;
8333;SDS011;4204;43.004;23.052;2023-05-17T11:58:11;10.17;;;6.07;;
8333;SDS011;4204;43.004;23.052;2023-05-17T12:00:40;9.70;;;5.73;;
8333;SDS011;4204;43.004;23.052;2023-05-17T12:03:18;9.67;;;6.03;;
8333;SDS011;4204;43.004;23.052;2023-05-17T12:05:47;7.27;;;4.73;;
8333;SDS011;4204;43.004;23.052;2023-05-17T12:08:16;6.83;;;4.53;;
8333;SDS011;4204;43.004;23.052;2023-05-17T12:10:45;6.03;;;4.47;;
8333;SDS011;4204;43.004;23.052;2023-05-17T12:13:16;5.03;;;3.83;;
8333;SDS011;4204;43.004;23.052;2023-05-17T12:15:45;5.53;;;4.17;;
8333;SDS011;4204;43.004;23.052;2023-05-17T12:18:18;5.83;;;3.30;;
8333;SDS011;4204;43.004;23.052;2023-05-17T12:20:52;4.27;;;3.30;;
8333;SDS011;4204;43.004;23.052;2023-05-17T12:23:24;4.40;;;2.70;;
8333;SDS011;4204;43.004;23.052;2023-05-17T12:26:03;4.33;;;2.40;;
8333;SDS011;4204;43.004;23.052;2023-05-17T12:28:34;2.40;;;2.10;;
8333;SDS011;4204;43.004;23.052;2023-05-17T12:31:03;2.87;;;1.97;;
8333;SDS011;4204;43.004;23.052;2023-05-17T12:33:35;4.77;;;2.10;;
8333;SDS011;4204;43.004;23.052;2023-05-17T12:36:06;2.17;;;1.93;;
8333;SDS011;4204;43.004;23.052;2023-05-17T12:38:36;2.50;;;1.87;;
8333;SDS011;4204;43.004;23.052;2023-05-17T12:41:06;3.37;;;1.83;;
8333;SDS011;4204;43.004;23.052;2023-05-17T12:43:38;5.40;;;2.33;;
8333;SDS011;4204;43.004;23.052;2023-05-17T12:46:06;2.93;;;2.27;;
8333;SDS011;4204;43.004;23.052;2023-05-17T12:48:36;4.30;;;3.30;;
8333;SDS011;4204;43.004;23.052;2023-05-17T12:51:06;3.60;;;2.47;;
8333;SDS011;4204;43.004;23.052;2023-05-17T12:53:37;4.57;;;3.20;;
8333;SDS011;4204;43.004;23.052;2023-05-17T12:56:06;4.37;;;3.40;;
8333;SDS011;4204;43.004;23.052;2023-05-17T12:58:34;6.33;;;3.33;;
8333;SDS011;4204;43.004;23.052;2023-05-17T13:01:03;5.57;;;3.80;;
8333;SDS011;4204;43.004;23.052;2023-05-17T13:03:35;6.53;;;4.10;;
8333;SDS011;4204;43.004;23.052;2023-05-17T13:06:03;4.43;;;3.43;;
8333;SDS011;4204;43.004;23.052;2023-05-17T13:08:34;7.47;;;3.60;;
8333;SDS011;4204;43.004;23.052;2023-05-17T13:11:09;5.23;;;4.50;;
8333;SDS011;4204;43.004;23.052;2023-05-17T13:13:39;7.80;;;5.50;;
8333;SDS011;4204;43.004;23.052;2023-05-17T13:16:09;8.57;;;5.30;;
8333;SDS011;4204;43.004;23.052;2023-05-17T13:18:46;8.67;;;5.23;;
8333;SDS011;4204;43.004;23.052;2023-05-17T13:21:15;5.97;;;4.80;;
8333;SDS011;4204;43.004;23.052;2023-05-17T13:23:44;7.23;;;5.23;;
8333;SDS011;4204;43.004;23.052;2023-05-17T13:26:13;6.53;;;5.13;;
8333;SDS011;4204;43.004;23.052;2023-05-17T13:28:42;6.77;;;4.90;;
8333;SDS011;4204;43.004;23.052;2023-05-17T13:31:11;5.00;;;2.93;;
8333;SDS011;4204;43.004;23.052;2023-05-17T13:33:39;8.07;;;4.60;;
8333;SDS011;4204;43.004;23.052;2023-05-17T13:36:07;6.43;;;4.07;;
8333;SDS011;4204;43.004;23.052;2023-05-17T13:38:36;7.17;;;4.50;;
8333;SDS011;4204;43.004;23.052;2023-05-17T13:41:04;10.50;;;4.13;;
8333;SDS011;4204;43.004;23.052;2023-05-17T13:43:34;5.70;;;4.20;;
8333;SDS011;4204;43.004;23.052;2023-05-17T13:46:02;4.33;;;3.33;;
8333;SDS011;4204;43.004;23.052;2023-05-17T13:48:31;2.37;;;1.73;;
8333;SDS011;4204;43.004;23.052;2023-05-17T13:50:59;1.70;;;1.60;;
8333;SDS011;4204;43.004;23.052;2023-05-17T13:53:27;1.80;;;1.70;;
8333;SDS011;4204;43.004;23.052;2023-05-17T13:55:55;2.00;;;1.80;;
8333;SDS011;4204;43.004;23.052;2023-05-17T13:58:22;2.23;;;1.93;;
8333;SDS011;4204;43.004;23.052;2023-05-17T14:00:50;3.57;;;2.60;;
8333;SDS011;4204;43.004;23.052;2023-05-17T14:03:18;9.03;;;4.00;;
8333;SDS011;4204;43.004;23.052;2023-05-17T14:05:47;5.80;;;3.90;;
8333;SDS011;4204;43.004;23.052;2023-05-17T14:08:17;6.73;;;3.53;;
8333;SDS011;4204;43.004;23.052;2023-05-17T14:10:45;3.77;;;2.23;;
8333;SDS011;4204;43.004;23.052;2023-05-17T14:13:14;2.37;;;2.00;;
8333;SDS011;4204;43.004;23.052;2023-05-17T14:15:42;2.53;;;1.67;;
8333;SDS011;4204;43.004;23.052;2023-05-17T14:18:10;2.20;;;1.70;;
8333;SDS011;4204;43.004;23.052;2023-05-17T14:20:40;2.67;;;2.10;;
8333;SDS011;4204;43.004;23.052;2023-05-17T14:23:09;4.63;;;2.77;;
8333;SDS011;4204;43.004;23.052;2023-05-17T14:25:37;3.80;;;2.47;;
8333;SDS011;4204;43.004;23.052;2023-05-17T14:28:05;3.37;;;2.40;;
8333;SDS011;4204;43.004;23.052;2023-05-17T14:30:33;2.83;;;2.10;;
8333;SDS011;4204;43.004;23.052;2023-05-17T14:33:00;9.20;;;5.30;;
8333;SDS011;4204;43.004;23.052;2023-05-17T14:35:28;2.27;;;2.07;;
8333;SDS011;4204;43.004;23.052;2023-05-17T14:37:56;2.83;;;2.50;;
8333;SDS011;4204;43.004;23.052;2023-05-17T14:40:25;2.83;;;2.20;;
8333;SDS011;4204;43.004;23.052;2023-05-17T14:42:53;3.90;;;2.20;;
8333;SDS011;4204;43.004;23.052;2023-05-17T14:45:21;2.93;;;2.63;;
8333;SDS011;4204;43.004;23.052;2023-05-17T14:47:50;3.17;;;1.80;;
8333;SDS011;4204;43.004;23.052;2023-05-17T14:50:18;2.33;;;1.80;;
8333;SDS011;4204;43.004;23.052;2023-05-17T14:52:45;3.17;;;2.70;;
8333;SDS011;4204;43.004;23.052;2023-05-17T14:55:13;3.60;;;2.57;;
8333;SDS011;4204;43.004;23.052;2023-05-17T14:57:43;3.70;;;2.30;;
8333;SDS011;4204;43.004;23.052;2023-05-17T15:00:12;3.93;;;3.53;;
8333;SDS011;4204;43.004;23.052;2023-05-17T15:02:40;4.30;;;2.20;;
8333;SDS011;4204;43.004;23.052;2023-05-17T15:05:08;4.63;;;2.20;;
8333;SDS011;4204;43.004;23.052;2023-05-17T15:07:36;3.70;;;3.30;;
8333;SDS011;4204;43.004;23.052;2023-05-17T15:10:04;4.67;;;3.10;;